GEC8615 KJFK-EDDF
Flight info
| Callsign | GEC8615 |
|---|---|
| Flight time | N/A |
| Altitude | 31000 |
| Route | BETTE DCT ACK DCT TUSKY N501B ALLRY/M084F330 DCT 51N050W 54N040W 55N030W 55N020W DCT DOGAL DCT BEXET/N0484F350 DCT MORAG DCT NUCHU L607 KONAN UL607 KOK DCT SPI T180 NIVNU T847 IMCOM IMCOM2C |
| Aircraft | MD11/H-SDE1E2E3FGHIJ2J3J4J5M1RWXY/LB1D1 |
Departure
| Time | 2026-05-09 14:37 |
|---|---|
| Airport | John F. Kennedy International Airport (KJFK) |
Arrival
| Time | N/A |
|---|---|
| Airport | Frankfurt Main Airport (EDDF) |
| Time | Latitude | Longitude | Altitude | Speed | Heading |
|---|---|---|---|---|---|
| 2026-05-09 13:53 | 40.65867 | -73.79648 | 27 ft | 0 kts | 91° |
| 2026-05-09 14:16 | 40.65867 | -73.79656 | 27 ft | 4 kts | 91° |
| 2026-05-09 14:16 | 40.65867 | -73.79686 | 26 ft | 3 kts | 91° |
| 2026-05-09 14:16 | 40.65870 | -73.79719 | 24 ft | 4 kts | 110° |
| 2026-05-09 14:16 | 40.65882 | -73.79747 | 26 ft | 4 kts | 140° |
| 2026-05-09 14:17 | 40.65903 | -73.79764 | 26 ft | 4 kts | 169° |
| 2026-05-09 14:17 | 40.65929 | -73.79767 | 26 ft | 3 kts | 181° |
| 2026-05-09 14:17 | 40.65912 | -73.79767 | 26 ft | 4 kts | 181° |
| 2026-05-09 14:17 | 40.65885 | -73.79768 | 24 ft | 4 kts | 181° |
| 2026-05-09 14:18 | 40.65878 | -73.79768 | 26 ft | 0 kts | 181° |
| 2026-05-09 14:22 | 40.65877 | -73.79768 | 26 ft | 1 kts | 181° |
| 2026-05-09 14:22 | 40.65862 | -73.79768 | 26 ft | 3 kts | 181° |
| 2026-05-09 14:23 | 40.65831 | -73.79769 | 27 ft | 6 kts | 181° |
| 2026-05-09 14:23 | 40.65782 | -73.79770 | 27 ft | 8 kts | 181° |
| 2026-05-09 14:23 | 40.65716 | -73.79771 | 27 ft | 11 kts | 181° |
| 2026-05-09 14:23 | 40.65636 | -73.79772 | 27 ft | 12 kts | 182° |
| 2026-05-09 14:24 | 40.65549 | -73.79775 | 27 ft | 14 kts | 180° |
| 2026-05-09 14:24 | 40.65447 | -73.79776 | 27 ft | 16 kts | 180° |
| 2026-05-09 14:24 | 40.65332 | -73.79775 | 27 ft | 18 kts | 175° |
| 2026-05-09 14:24 | 40.65219 | -73.79718 | 27 ft | 13 kts | 151° |
| 2026-05-09 14:25 | 40.65169 | -73.79666 | 27 ft | 6 kts | 118° |
| 2026-05-09 14:25 | 40.65164 | -73.79622 | 27 ft | 4 kts | 95° |
| 2026-05-09 14:25 | 40.65165 | -73.79597 | 27 ft | 1 kts | 79° |
| 2026-05-09 14:25 | 40.65168 | -73.79592 | 27 ft | 1 kts | 62° |
| 2026-05-09 14:26 | 40.65179 | -73.79569 | 27 ft | 5 kts | 59° |
| 2026-05-09 14:26 | 40.65202 | -73.79518 | 27 ft | 8 kts | 59° |
| 2026-05-09 14:26 | 40.65238 | -73.79443 | 27 ft | 11 kts | 60° |
| 2026-05-09 14:26 | 40.65277 | -73.79340 | 27 ft | 13 kts | 67° |
| 2026-05-09 14:27 | 40.65290 | -73.79218 | 27 ft | 13 kts | 96° |
| 2026-05-09 14:27 | 40.65262 | -73.79100 | 27 ft | 13 kts | 107° |
| 2026-05-09 14:27 | 40.65236 | -73.78994 | 27 ft | 11 kts | 108° |
| 2026-05-09 14:27 | 40.65221 | -73.78909 | 27 ft | 8 kts | 99° |
| 2026-05-09 14:28 | 40.65219 | -73.78846 | 27 ft | 6 kts | 86° |
| 2026-05-09 14:28 | 40.65228 | -73.78788 | 27 ft | 7 kts | 73° |
| 2026-05-09 14:28 | 40.65248 | -73.78733 | 27 ft | 7 kts | 63° |
| 2026-05-09 14:28 | 40.65274 | -73.78670 | 28 ft | 9 kts | 61° |
| 2026-05-09 14:29 | 40.65306 | -73.78594 | 28 ft | 10 kts | 61° |
| 2026-05-09 14:29 | 40.65345 | -73.78502 | 28 ft | 12 kts | 60° |
| 2026-05-09 14:29 | 40.65390 | -73.78399 | 29 ft | 14 kts | 60° |
| 2026-05-09 14:29 | 40.65439 | -73.78285 | 28 ft | 15 kts | 60° |
| 2026-05-09 14:30 | 40.65481 | -73.78174 | 28 ft | 12 kts | 73° |
| 2026-05-09 14:30 | 40.65476 | -73.78082 | 26 ft | 8 kts | 114° |
| 2026-05-09 14:30 | 40.65452 | -73.78025 | 28 ft | 7 kts | 121° |
| 2026-05-09 14:30 | 40.65422 | -73.77959 | 28 ft | 9 kts | 121° |
| 2026-05-09 14:31 | 40.65384 | -73.77876 | 28 ft | 12 kts | 121° |
| 2026-05-09 14:31 | 40.65339 | -73.77778 | 28 ft | 13 kts | 121° |
| 2026-05-09 14:31 | 40.65289 | -73.77668 | 28 ft | 15 kts | 121° |
| 2026-05-09 14:31 | 40.65235 | -73.77548 | 27 ft | 14 kts | 120° |
| 2026-05-09 14:32 | 40.65188 | -73.77444 | 28 ft | 12 kts | 120° |
| 2026-05-09 14:32 | 40.65149 | -73.77355 | 28 ft | 10 kts | 120° |
| 2026-05-09 14:32 | 40.65116 | -73.77283 | 28 ft | 9 kts | 122° |
| 2026-05-09 14:32 | 40.65078 | -73.77203 | 28 ft | 11 kts | 122° |
| 2026-05-09 14:33 | 40.65035 | -73.77110 | 27 ft | 12 kts | 119° |
| 2026-05-09 14:33 | 40.64990 | -73.77008 | 29 ft | 14 kts | 120° |
| 2026-05-09 14:33 | 40.64939 | -73.76894 | 29 ft | 15 kts | 121° |
| 2026-05-09 14:33 | 40.64890 | -73.76787 | 29 ft | 9 kts | 121° |
| 2026-05-09 14:34 | 40.64882 | -73.76714 | 29 ft | 8 kts | 70° |
| 2026-05-09 14:34 | 40.64926 | -73.76662 | 29 ft | 9 kts | 33° |
| 2026-05-09 14:34 | 40.64985 | -73.76614 | 29 ft | 11 kts | 31° |
| 2026-05-09 14:34 | 40.65056 | -73.76558 | 27 ft | 13 kts | 30° |
| 2026-05-09 14:35 | 40.65092 | -73.76481 | 29 ft | 10 kts | 91° |
| 2026-05-09 14:35 | 40.65069 | -73.76403 | 30 ft | 9 kts | 120° |
| 2026-05-09 14:35 | 40.65032 | -73.76354 | 30 ft | 3 kts | 171° |
| 2026-05-09 14:35 | 40.65016 | -73.76360 | 30 ft | 2 kts | 201° |
| 2026-05-09 14:36 | 40.65009 | -73.76366 | 30 ft | 0 kts | 211° |
| 2026-05-09 14:36 | 40.64980 | -73.76389 | 29 ft | 26 kts | 211° |
| 2026-05-09 14:36 | 40.64604 | -73.76683 | 27 ft | 100 kts | 211° |
| 2026-05-09 14:36 | 40.63805 | -73.77309 | 28 ft | 161 kts | 211° |
| 2026-05-09 14:37 | 40.62752 | -73.78136 | 169 ft | 185 kts | 210° |
| 2026-05-09 14:37 | 40.61657 | -73.78998 | 812 ft | 184 kts | 210° |
| 2026-05-09 14:37 | 40.60570 | -73.79847 | 1568 ft | 176 kts | 212° |
| 2026-05-09 14:37 | 40.59541 | -73.80659 | 2241 ft | 173 kts | 214° |
| 2026-05-09 14:38 | 40.58492 | -73.81495 | 2682 ft | 182 kts | 214° |
| 2026-05-09 14:38 | 40.57383 | -73.82377 | 3223 ft | 186 kts | 214° |
| 2026-05-09 14:38 | 40.56218 | -73.83318 | 3459 ft | 209 kts | 214° |
| 2026-05-09 14:38 | 40.54916 | -73.84375 | 3599 ft | 229 kts | 214° |
| 2026-05-09 14:39 | 40.53496 | -73.85498 | 3740 ft | 246 kts | 209° |
| 2026-05-09 14:39 | 40.51779 | -73.86060 | 3910 ft | 267 kts | 183° |
| 2026-05-09 14:39 | 40.49947 | -73.85439 | 4345 ft | 282 kts | 157° |
| 2026-05-09 14:39 | 40.48433 | -73.83729 | 4786 ft | 296 kts | 131° |
| 2026-05-09 14:40 | 40.47570 | -73.81224 | 5198 ft | 309 kts | 106° |
| 2026-05-09 14:40 | 40.47462 | -73.78367 | 5588 ft | 318 kts | 90° |
| 2026-05-09 14:40 | 40.47658 | -73.75443 | 6062 ft | 328 kts | 88° |
| 2026-05-09 14:40 | 40.47907 | -73.72438 | 6793 ft | 331 kts | 88° |
| 2026-05-09 14:41 | 40.48173 | -73.69418 | 7550 ft | 334 kts | 87° |
| 2026-05-09 14:41 | 40.48450 | -73.66368 | 8230 ft | 338 kts | 87° |
| 2026-05-09 14:41 | 40.48639 | -73.64325 | 8677 ft | 340 kts | 87° |
| 2026-05-09 14:41 | 40.48929 | -73.61232 | 9355 ft | 344 kts | 87° |
| 2026-05-09 14:42 | 40.49354 | -73.57056 | 9984 ft | 349 kts | 85° |
| 2026-05-09 14:42 | 40.49610 | -73.54916 | 10235 ft | 355 kts | 85° |
| 2026-05-09 14:42 | 40.50147 | -73.50538 | 10500 ft | 379 kts | 84° |
| 2026-05-09 14:42 | 40.50431 | -73.48219 | 10778 ft | 384 kts | 84° |
| 2026-05-09 14:43 | 40.50856 | -73.44735 | 11344 ft | 389 kts | 84° |
| 2026-05-09 14:43 | 40.51282 | -73.41199 | 11885 ft | 394 kts | 84° |
| 2026-05-09 14:43 | 40.51710 | -73.37614 | 12432 ft | 398 kts | 84° |
| 2026-05-09 14:43 | 40.52138 | -73.33987 | 12967 ft | 403 kts | 84° |
| 2026-05-09 14:44 | 40.52561 | -73.30374 | 13482 ft | 408 kts | 84° |
| 2026-05-09 14:44 | 40.52994 | -73.26668 | 14002 ft | 411 kts | 84° |
| 2026-05-09 14:44 | 40.53428 | -73.22933 | 14430 ft | 415 kts | 83° |
| 2026-05-09 14:44 | 40.53866 | -73.19160 | 14874 ft | 420 kts | 83° |
| 2026-05-09 14:45 | 40.54306 | -73.15344 | 15280 ft | 424 kts | 83° |
| 2026-05-09 14:45 | 40.54751 | -73.11484 | 15693 ft | 429 kts | 83° |
| 2026-05-09 14:45 | 40.55197 | -73.07594 | 16107 ft | 433 kts | 83° |
| 2026-05-09 14:45 | 40.55705 | -73.03671 | 16496 ft | 437 kts | 78° |
| 2026-05-09 14:46 | 40.56480 | -72.99788 | 16902 ft | 442 kts | 73° |
| 2026-05-09 14:46 | 40.57425 | -72.95914 | 17300 ft | 446 kts | 71° |
| 2026-05-09 14:46 | 40.58434 | -72.92055 | 17702 ft | 449 kts | 70° |
| 2026-05-09 14:46 | 40.59469 | -72.88154 | 18087 ft | 453 kts | 70° |
| 2026-05-09 14:47 | 40.60506 | -72.84216 | 18446 ft | 456 kts | 70° |
| 2026-05-09 14:47 | 40.61534 | -72.80254 | 18797 ft | 459 kts | 70° |
| 2026-05-09 14:47 | 40.62557 | -72.76269 | 19154 ft | 461 kts | 70° |
| 2026-05-09 14:47 | 40.63579 | -72.72256 | 19499 ft | 463 kts | 71° |
| 2026-05-09 14:48 | 40.64587 | -72.68274 | 19837 ft | 465 kts | 71° |
| 2026-05-09 14:48 | 40.65613 | -72.64214 | 20171 ft | 467 kts | 71° |
| 2026-05-09 14:48 | 40.66639 | -72.60144 | 20477 ft | 471 kts | 71° |
| 2026-05-09 14:48 | 40.67673 | -72.56037 | 20827 ft | 472 kts | 71° |
| 2026-05-09 14:49 | 40.68709 | -72.51916 | 21179 ft | 475 kts | 71° |
| 2026-05-09 14:49 | 40.69750 | -72.47767 | 21541 ft | 477 kts | 71° |
| 2026-05-09 14:49 | 40.70793 | -72.43604 | 21895 ft | 480 kts | 71° |
| 2026-05-09 14:49 | 40.71840 | -72.39423 | 22251 ft | 482 kts | 71° |
| 2026-05-09 14:50 | 40.72893 | -72.35204 | 22592 ft | 484 kts | 71° |
| 2026-05-09 14:50 | 40.73948 | -72.30973 | 22933 ft | 487 kts | 71° |
| 2026-05-09 14:50 | 40.75004 | -72.26731 | 23284 ft | 489 kts | 71° |
| 2026-05-09 14:50 | 40.76055 | -72.22499 | 23618 ft | 492 kts | 71° |
| 2026-05-09 14:51 | 40.77132 | -72.18152 | 23925 ft | 494 kts | 71° |
| 2026-05-09 14:51 | 40.78202 | -72.13830 | 24244 ft | 496 kts | 71° |
| 2026-05-09 14:51 | 40.79273 | -72.09495 | 24580 ft | 499 kts | 71° |
| 2026-05-09 14:51 | 40.80352 | -72.05120 | 24804 ft | 503 kts | 71° |
| 2026-05-09 14:52 | 40.81421 | -72.00772 | 25119 ft | 505 kts | 71° |
| 2026-05-09 14:52 | 40.82493 | -71.96350 | 25452 ft | 507 kts | 71° |
| 2026-05-09 14:52 | 40.83562 | -71.91914 | 25757 ft | 509 kts | 71° |
| 2026-05-09 14:52 | 40.84640 | -71.87447 | 26097 ft | 510 kts | 71° |
| 2026-05-09 14:53 | 40.85722 | -71.82982 | 26404 ft | 512 kts | 71° |
| 2026-05-09 14:53 | 40.86812 | -71.78496 | 26698 ft | 514 kts | 71° |
| 2026-05-09 14:53 | 40.87907 | -71.73993 | 27018 ft | 516 kts | 71° |
| 2026-05-09 14:53 | 40.89006 | -71.69466 | 27317 ft | 518 kts | 71° |
| 2026-05-09 14:54 | 40.90107 | -71.64931 | 27617 ft | 520 kts | 71° |
| 2026-05-09 14:54 | 40.91209 | -71.60375 | 27909 ft | 522 kts | 71° |
| 2026-05-09 14:54 | 40.92319 | -71.55782 | 28138 ft | 526 kts | 71° |
| 2026-05-09 14:54 | 40.93431 | -71.51165 | 28428 ft | 528 kts | 71° |
| 2026-05-09 14:55 | 40.94544 | -71.46537 | 28712 ft | 529 kts | 71° |
| 2026-05-09 14:55 | 40.95663 | -71.41875 | 28988 ft | 531 kts | 71° |
| 2026-05-09 14:55 | 40.96779 | -71.37214 | 29259 ft | 533 kts | 71° |
| 2026-05-09 14:55 | 40.97901 | -71.32522 | 29536 ft | 535 kts | 71° |
| 2026-05-09 14:56 | 40.99023 | -71.27818 | 29792 ft | 537 kts | 71° |
| 2026-05-09 14:56 | 41.00145 | -71.23103 | 30030 ft | 539 kts | 71° |
| 2026-05-09 14:56 | 41.01272 | -71.18357 | 30246 ft | 540 kts | 71° |
| 2026-05-09 14:56 | 41.02398 | -71.13607 | 30439 ft | 542 kts | 71° |
| 2026-05-09 14:57 | 41.03527 | -71.08835 | 30648 ft | 543 kts | 71° |
| 2026-05-09 14:57 | 41.04656 | -71.04050 | 30772 ft | 546 kts | 71° |
| 2026-05-09 14:57 | 41.05789 | -70.99240 | 30987 ft | 547 kts | 71° |
| 2026-05-09 14:57 | 41.06917 | -70.94424 | 31032 ft | 548 kts | 71° |
| 2026-05-09 14:58 | 41.09156 | -70.84713 | 31043 ft | 551 kts | 71° |
| 2026-05-09 14:58 | 41.11387 | -70.75060 | 31045 ft | 551 kts | 71° |
| 2026-05-09 14:59 | 41.13645 | -70.65332 | 31045 ft | 552 kts | 71° |
| 2026-05-09 14:59 | 41.15900 | -70.55591 | 31048 ft | 552 kts | 71° |
| 2026-05-09 15:00 | 41.18142 | -70.45860 | 31048 ft | 551 kts | 72° |
| 2026-05-09 15:00 | 41.20374 | -70.36128 | 31051 ft | 551 kts | 72° |
| 2026-05-09 15:01 | 41.23706 | -70.21513 | 31072 ft | 551 kts | 72° |
| 2026-05-09 15:02 | 41.25916 | -70.11767 | 31072 ft | 550 kts | 72° |
| 2026-05-09 15:02 | 41.28826 | -70.02433 | 31078 ft | 545 kts | 56° |
| 2026-05-09 15:03 | 41.33473 | -69.94626 | 31075 ft | 534 kts | 37° |
| 2026-05-09 15:03 | 41.39236 | -69.88533 | 31077 ft | 528 kts | 31° |
| 2026-05-09 15:04 | 41.44970 | -69.82336 | 31078 ft | 532 kts | 35° |
| 2026-05-09 15:06 | 41.66407 | -69.55006 | 31075 ft | 533 kts | 38° |
| 2026-05-09 15:06 | 41.71752 | -69.48125 | 31079 ft | 533 kts | 38° |
| 2026-05-09 15:07 | 41.77098 | -69.41227 | 31093 ft | 533 kts | 38° |
| 2026-05-09 15:07 | 41.82427 | -69.34330 | 31084 ft | 533 kts | 38° |
| 2026-05-09 15:08 | 41.87761 | -69.27411 | 31084 ft | 533 kts | 38° |
| 2026-05-09 15:08 | 41.95739 | -69.16972 | 31091 ft | 533 kts | 38° |
| 2026-05-09 15:10 | 42.16973 | -68.89127 | 31092 ft | 534 kts | 38° |
| 2026-05-09 15:11 | 42.22289 | -68.82119 | 31093 ft | 534 kts | 38° |
| 2026-05-09 15:11 | 42.27599 | -68.75101 | 31096 ft | 534 kts | 38° |
| 2026-05-09 15:12 | 42.32909 | -68.68066 | 31099 ft | 534 kts | 38° |
| 2026-05-09 15:12 | 42.38211 | -68.61024 | 31142 ft | 534 kts | 38° |
| 2026-05-09 15:13 | 42.43510 | -68.53966 | 31103 ft | 534 kts | 38° |
| 2026-05-09 15:13 | 42.48777 | -68.46934 | 31091 ft | 534 kts | 38° |
| 2026-05-09 15:14 | 42.54051 | -68.39830 | 31147 ft | 534 kts | 38° |
| 2026-05-09 15:14 | 42.59319 | -68.32727 | 31105 ft | 533 kts | 38° |
| 2026-05-09 15:15 | 42.63698 | -68.26832 | 31102 ft | 533 kts | 38° |
| 2026-05-09 15:15 | 42.69852 | -68.18540 | 31090 ft | 533 kts | 38° |
| 2026-05-09 15:16 | 42.75111 | -68.11433 | 31103 ft | 533 kts | 38° |
| 2026-05-09 15:16 | 42.80376 | -68.04297 | 31102 ft | 533 kts | 38° |
| 2026-05-09 15:17 | 42.85630 | -67.97157 | 31096 ft | 533 kts | 38° |
| 2026-05-09 15:17 | 42.90872 | -67.90015 | 31096 ft | 532 kts | 38° |
| 2026-05-09 15:18 | 42.96078 | -67.82907 | 31099 ft | 532 kts | 38° |
| 2026-05-09 15:18 | 43.01307 | -67.75748 | 31111 ft | 532 kts | 38° |
| 2026-05-09 15:19 | 43.06534 | -67.68574 | 31104 ft | 533 kts | 38° |
| 2026-05-09 15:19 | 43.11753 | -67.61352 | 31104 ft | 533 kts | 38° |
| 2026-05-09 15:20 | 43.19576 | -67.50501 | 31107 ft | 534 kts | 38° |
| 2026-05-09 15:21 | 43.24813 | -67.43245 | 31104 ft | 534 kts | 38° |
| 2026-05-09 15:21 | 43.30046 | -67.35978 | 31125 ft | 535 kts | 37° |
| 2026-05-09 15:22 | 43.35278 | -67.28696 | 31110 ft | 536 kts | 37° |
| 2026-05-09 15:22 | 43.40505 | -67.21399 | 31107 ft | 536 kts | 37° |
| 2026-05-09 15:23 | 43.45699 | -67.14126 | 31114 ft | 536 kts | 37° |
| 2026-05-09 15:23 | 43.50926 | -67.06792 | 31109 ft | 536 kts | 37° |
| 2026-05-09 15:24 | 43.56149 | -66.99443 | 31110 ft | 536 kts | 37° |
| 2026-05-09 15:24 | 43.61371 | -66.92076 | 31111 ft | 537 kts | 37° |
| 2026-05-09 15:25 | 43.66583 | -66.84699 | 31109 ft | 537 kts | 37° |
| 2026-05-09 15:25 | 43.71777 | -66.77278 | 31110 ft | 537 kts | 37° |
| 2026-05-09 15:26 | 43.79273 | -66.65626 | 31114 ft | 544 kts | 43° |
| 2026-05-09 15:26 | 43.84002 | -66.57442 | 31111 ft | 544 kts | 44° |
| 2026-05-09 15:27 | 43.88727 | -66.49255 | 31116 ft | 544 kts | 43° |
| 2026-05-09 15:27 | 43.92663 | -66.42488 | 31119 ft | 541 kts | 44° |
| 2026-05-09 15:28 | 43.97398 | -66.34358 | 31113 ft | 541 kts | 44° |
| 2026-05-09 15:28 | 44.02130 | -66.26215 | 31112 ft | 541 kts | 44° |
| 2026-05-09 15:29 | 44.06846 | -66.18069 | 31113 ft | 540 kts | 44° |
| 2026-05-09 15:29 | 44.11546 | -66.09926 | 31102 ft | 540 kts | 44° |
| 2026-05-09 15:30 | 44.16244 | -66.01764 | 31105 ft | 540 kts | 44° |
| 2026-05-09 15:30 | 44.20939 | -65.93584 | 31098 ft | 540 kts | 44° |
| 2026-05-09 15:31 | 44.25623 | -65.85399 | 31094 ft | 540 kts | 45° |
| 2026-05-09 15:31 | 44.30289 | -65.77168 | 31092 ft | 539 kts | 45° |
| 2026-05-09 15:32 | 44.34928 | -65.68959 | 31088 ft | 537 kts | 46° |
| 2026-05-09 15:32 | 44.39527 | -65.60842 | 31089 ft | 536 kts | 46° |